createdAt,value
2022-08-24T00:00:12.063Z,100052.34
2022-08-24T00:01:11.067Z,100053.73
2022-08-24T00:02:12.013Z,100051.93
2022-08-24T00:03:11.156Z,100054.95
2022-08-24T00:04:11.074Z,100052.85
2022-08-24T00:05:14.625Z,100046.98
2022-08-24T00:06:11.067Z,100052.07
2022-08-24T00:07:26.466Z,100051.51
2022-08-24T00:08:13.090Z,100055.14
2022-08-24T00:09:11.065Z,100051.39
2022-08-24T00:10:11.069Z,100054.46
2022-08-24T00:11:11.068Z,100053.79
2022-08-24T00:12:11.064Z,100048.32
2022-08-24T00:13:11.069Z,100049.59
2022-08-24T00:14:11.068Z,100047.23
2022-08-24T00:15:11.066Z,100044.89
2022-08-24T00:16:11.155Z,100043.93
2022-08-24T00:17:11.068Z,100047.18
2022-08-24T00:18:11.067Z,100046.86
2022-08-24T00:19:11.067Z,100049.71
2022-08-24T00:20:12.068Z,100051.13
2022-08-24T00:21:11.057Z,100053.52
2022-08-24T00:22:11.056Z,100051.57
2022-08-24T00:23:11.059Z,100052.22
2022-08-24T00:24:11.058Z,100053.84
2022-08-24T00:25:11.060Z,100053.68
2022-08-24T00:26:11.059Z,100051.32
2022-08-24T00:27:11.057Z,100047.59
2022-08-24T00:28:11.057Z,100050.00
2022-08-24T00:29:11.065Z,100045.05
2022-08-24T00:30:12.058Z,100041.70
2022-08-24T00:31:11.061Z,100038.25
2022-08-24T00:32:11.150Z,100031.52
2022-08-24T00:33:11.058Z,100033.71
2022-08-24T00:34:11.060Z,100030.04
2022-08-24T00:35:11.061Z,100022.84
2022-08-24T00:36:11.058Z,100023.50
2022-08-24T00:37:11.061Z,100019.00
2022-08-24T00:38:11.061Z,100020.73
2022-08-24T00:39:11.059Z,100021.20
2022-08-24T00:40:15.260Z,100020.54
2022-08-24T00:41:11.069Z,100018.96
2022-08-24T00:42:11.063Z,100014.04
2022-08-24T00:43:11.059Z,100012.74
2022-08-24T00:44:11.079Z,100012.56
2022-08-24T00:45:12.064Z,100013.25
2022-08-24T00:46:19.065Z,100011.04
2022-08-24T00:47:18.061Z,100013.27
2022-08-24T00:48:20.069Z,100012.97
2022-08-24T00:49:17.064Z,100019.89
2022-08-24T00:50:14.069Z,100020.97
2022-08-24T00:51:19.062Z,100023.55
2022-08-24T00:52:15.073Z,100021.49
2022-08-24T00:53:19.061Z,100022.51
2022-08-24T00:54:12.068Z,100022.91
2022-08-24T00:55:17.066Z,100019.17
2022-08-24T00:56:17.064Z,100018.88
2022-08-24T00:57:11.062Z,100017.25
2022-08-24T00:58:17.160Z,100015.67
2022-08-24T00:59:13.072Z,100012.63
2022-08-24T01:00:17.063Z,100011.75
2022-08-24T01:01:11.122Z,100017.00
2022-08-24T01:02:15.898Z,100015.77
2022-08-24T01:03:11.066Z,100014.19
2022-08-24T01:04:13.065Z,100016.42
2022-08-24T01:05:11.067Z,100018.03
2022-08-24T01:06:11.074Z,100017.24
2022-08-24T01:07:11.069Z,100018.70
2022-08-24T01:08:11.067Z,100020.32
2022-08-24T01:09:11.079Z,100019.77
2022-08-24T01:10:15.065Z,100020.59
2022-08-24T01:11:12.065Z,100020.94
2022-08-24T01:12:11.067Z,100021.78
2022-08-24T01:13:12.066Z,100023.16
2022-08-24T01:14:11.067Z,100019.80
2022-08-24T01:15:11.065Z,100018.29
2022-08-24T01:16:11.087Z,100021.82
2022-08-24T01:17:15.063Z,100023.00
2022-08-24T01:18:17.069Z,100023.24
2022-08-24T01:19:21.068Z,100025.06
2022-08-24T01:20:11.068Z,100025.27
2022-08-24T01:21:19.055Z,100021.46
2022-08-24T01:22:21.057Z,100020.03
2022-08-24T01:23:21.064Z,100017.73
2022-08-24T01:24:13.067Z,100021.37
2022-08-24T01:25:11.055Z,100020.32
2022-08-24T01:26:11.061Z,100021.40
2022-08-24T01:27:11.066Z,100025.07
2022-08-24T01:28:14.059Z,100024.57
2022-08-24T01:29:16.054Z,100024.14
2022-08-24T01:30:14.073Z,100025.75
2022-08-24T01:31:11.110Z,100021.55
2022-08-24T01:32:11.057Z,100021.83
2022-08-24T01:33:11.062Z,100025.20
2022-08-24T01:34:11.068Z,100018.92
2022-08-24T01:35:11.059Z,100016.60
2022-08-24T01:36:19.061Z,100016.69
2022-08-24T01:37:12.063Z,100017.98
2022-08-24T01:38:12.061Z,100017.51
2022-08-24T01:39:16.063Z,100015.23
2022-08-24T01:40:11.126Z,100013.10
2022-08-24T01:41:12.268Z,100014.60
2022-08-24T01:42:11.064Z,100012.18
2022-08-24T01:43:11.062Z,100012.04
2022-08-24T01:44:11.065Z,100012.52
2022-08-24T01:45:11.061Z,100013.62
2022-08-24T01:46:11.079Z,100013.68
2022-08-24T01:47:11.062Z,100013.93
2022-08-24T01:48:11.064Z,100014.70
2022-08-24T01:49:11.061Z,100012.13
2022-08-24T01:50:11.063Z,100013.02
2022-08-24T01:51:11.061Z,100015.04
2022-08-24T01:52:14.062Z,100013.88
2022-08-24T01:53:11.072Z,100011.68
2022-08-24T01:54:11.064Z,100005.14
2022-08-24T01:55:15.063Z,100003.52
2022-08-24T01:56:11.070Z,100005.42
2022-08-24T01:57:11.061Z,100001.69
2022-08-24T01:58:13.106Z,100007.01
2022-08-24T01:59:11.067Z,100005.14
2022-08-24T02:00:11.066Z,100010.64
2022-08-24T02:01:11.063Z,100007.65
2022-08-24T02:02:17.067Z,100010.93
2022-08-24T02:03:11.107Z,100007.00
2022-08-24T02:04:11.062Z,100008.45
2022-08-24T02:05:13.349Z,100008.91
2022-08-24T02:06:11.068Z,100008.24
2022-08-24T02:07:11.066Z,100006.60
2022-08-24T02:08:11.065Z,100008.80
2022-08-24T02:09:11.066Z,100009.47
2022-08-24T02:10:13.065Z,100008.02
2022-08-24T02:11:11.065Z,100010.20
2022-08-24T02:12:11.065Z,100009.05
2022-08-24T02:13:11.067Z,100005.14
2022-08-24T02:14:11.066Z,100003.69
2022-08-24T02:15:11.068Z,100011.38
2022-08-24T02:16:11.164Z,100012.95
2022-08-24T02:17:11.067Z,100007.30
2022-08-24T02:18:15.593Z,100007.11
2022-08-24T02:19:11.077Z,100000.86
2022-08-24T02:20:11.066Z,100001.16
2022-08-24T02:21:11.060Z,100001.70
2022-08-24T02:22:11.068Z,100003.53
2022-08-24T02:23:11.056Z,100001.76
2022-08-24T02:24:11.058Z,100003.87
2022-08-24T02:25:11.065Z,100009.70
2022-08-24T02:26:11.057Z,100004.92
2022-08-24T02:27:11.058Z,100001.89
2022-08-24T02:28:11.067Z,100004.36
2022-08-24T02:29:11.058Z,99999.77
2022-08-24T02:30:11.059Z,100003.41
2022-08-24T02:31:11.138Z,100003.46
2022-08-24T02:32:11.058Z,99999.63
2022-08-24T02:33:11.060Z,99996.78
2022-08-24T02:34:11.067Z,100002.18
2022-08-24T02:35:11.057Z,99997.78
2022-08-24T02:36:25.339Z,100000.27
2022-08-24T02:37:13.085Z,99994.67
2022-08-24T02:38:11.066Z,100000.35
2022-08-24T02:39:11.063Z,100007.11
2022-08-24T02:40:11.092Z,100000.36
2022-08-24T02:41:11.059Z,100003.94
2022-08-24T02:42:11.066Z,100002.75
2022-08-24T02:43:11.068Z,99999.05
2022-08-24T02:44:11.064Z,100001.00
2022-08-24T02:45:11.057Z,100000.05
2022-08-24T02:46:15.109Z,99999.52
2022-08-24T02:47:11.062Z,100004.73
2022-08-24T02:48:11.062Z,100001.23
2022-08-24T02:49:12.129Z,100000.02
2022-08-24T02:50:13.064Z,100004.62
2022-08-24T02:51:15.062Z,100000.33
2022-08-24T02:52:11.059Z,100003.45
2022-08-24T02:53:11.067Z,100000.60
2022-08-24T02:54:11.069Z,99999.24
2022-08-24T02:55:14.060Z,100002.45
2022-08-24T02:56:11.064Z,100003.14
2022-08-24T02:57:11.063Z,100002.12
2022-08-24T02:58:11.063Z,99999.29
2022-08-24T02:59:11.067Z,100004.76
2022-08-24T03:00:12.067Z,100004.11
2022-08-24T03:01:13.742Z,100004.25
2022-08-24T03:02:14.158Z,100001.51
2022-08-24T03:03:11.064Z,100000.43
2022-08-24T03:04:11.062Z,99999.90
2022-08-24T03:05:12.064Z,99993.77
2022-08-24T03:06:11.067Z,99999.32
2022-08-24T03:07:11.065Z,99991.79
2022-08-24T03:08:11.066Z,99993.89
2022-08-24T03:09:11.067Z,99993.94
2022-08-24T03:10:11.069Z,99992.96
2022-08-24T03:11:11.065Z,99997.76
2022-08-24T03:12:11.068Z,99992.30
2022-08-24T03:13:11.066Z,99998.70
2022-08-24T03:14:11.067Z,100004.79
2022-08-24T03:15:11.070Z,100005.26
2022-08-24T03:16:11.161Z,100001.14
2022-08-24T03:17:11.067Z,100007.66
2022-08-24T03:18:11.069Z,100006.10
2022-08-24T03:19:11.065Z,100001.94
2022-08-24T03:20:12.067Z,99998.46
2022-08-24T03:21:11.065Z,99999.04
2022-08-24T03:22:11.056Z,100003.70
2022-08-24T03:23:11.062Z,100003.00
2022-08-24T03:24:11.059Z,100005.89
2022-08-24T03:25:11.056Z,100002.25
2022-08-24T03:26:11.066Z,100004.46
2022-08-24T03:27:11.066Z,100008.75
2022-08-24T03:28:11.815Z,100012.43
2022-08-24T03:29:11.060Z,100008.06
2022-08-24T03:30:11.067Z,100007.68
2022-08-24T03:31:11.229Z,100002.04
2022-08-24T03:32:11.059Z,100006.08
2022-08-24T03:33:12.226Z,100009.44
2022-08-24T03:34:11.061Z,100012.87
2022-08-24T03:35:11.063Z,100012.12
2022-08-24T03:36:14.088Z,100009.71
2022-08-24T03:37:11.061Z,100010.97
2022-08-24T03:38:11.058Z,100009.00
2022-08-24T03:39:11.065Z,100005.67
2022-08-24T03:40:22.520Z,100003.80
2022-08-24T03:41:13.083Z,100005.15
2022-08-24T03:42:11.061Z,100001.62
2022-08-24T03:43:11.063Z,100008.13
2022-08-24T03:44:11.062Z,100008.93
2022-08-24T03:45:11.064Z,100006.41
2022-08-24T03:46:11.107Z,100000.87
2022-08-24T03:47:11.062Z,99997.93
2022-08-24T03:48:11.063Z,99997.89
2022-08-24T03:49:11.064Z,99998.98
2022-08-24T03:50:11.062Z,99997.90
2022-08-24T03:51:12.064Z,99997.16
2022-08-24T03:52:11.065Z,99995.93
2022-08-24T03:53:11.065Z,99997.78
2022-08-24T03:54:11.067Z,99992.50
2022-08-24T03:55:11.071Z,99998.37
2022-08-24T03:56:11.062Z,99998.97
2022-08-24T03:57:11.065Z,100006.78
2022-08-24T03:58:11.067Z,100001.71
2022-08-24T03:59:11.065Z,99998.45
2022-08-24T04:00:11.066Z,99998.60
2022-08-24T04:01:11.117Z,99999.92
2022-08-24T04:02:11.091Z,100002.13
2022-08-24T04:03:13.065Z,100004.05
2022-08-24T04:04:11.073Z,100002.19
2022-08-24T04:05:11.065Z,100000.95
2022-08-24T04:06:11.687Z,100000.00
2022-08-24T04:07:11.073Z,100000.16
2022-08-24T04:08:11.065Z,99997.50
2022-08-24T04:09:11.068Z,99995.73
2022-08-24T04:10:11.073Z,100000.88
2022-08-24T04:11:17.064Z,100000.83
2022-08-24T04:12:11.064Z,100001.57
2022-08-24T04:13:11.074Z,100001.75
2022-08-24T04:14:23.517Z,100001.02
2022-08-24T04:15:13.751Z,99999.71
2022-08-24T04:16:12.124Z,100002.43
2022-08-24T04:17:11.067Z,100001.48
2022-08-24T04:18:11.066Z,100001.25
2022-08-24T04:19:11.067Z,100000.45
2022-08-24T04:20:11.075Z,100003.69
2022-08-24T04:21:18.060Z,99996.22
2022-08-24T04:22:11.054Z,100002.09
2022-08-24T04:23:11.061Z,100003.18
2022-08-24T04:24:11.062Z,100003.41
2022-08-24T04:25:11.054Z,100001.71
2022-08-24T04:26:11.061Z,100000.16
2022-08-24T04:27:11.059Z,99999.44
2022-08-24T04:28:11.062Z,99993.30
2022-08-24T04:29:11.061Z,99989.47
2022-08-24T04:30:14.060Z,99993.90
2022-08-24T04:31:11.055Z,99989.44
2022-08-24T04:32:11.133Z,99989.26
2022-08-24T04:33:11.060Z,99989.31
2022-08-24T04:34:11.056Z,99988.45
2022-08-24T04:35:11.063Z,99987.64
2022-08-24T04:36:11.063Z,99986.53
2022-08-24T04:37:11.543Z,99984.29
2022-08-24T04:38:11.067Z,99986.02
2022-08-24T04:39:11.064Z,99981.70
2022-08-24T04:40:11.116Z,99984.30
2022-08-24T04:41:13.501Z,99984.99
2022-08-24T04:42:11.061Z,99982.77
2022-08-24T04:43:11.058Z,99984.39
2022-08-24T04:44:11.067Z,99989.34
2022-08-24T04:45:11.060Z,99989.81
2022-08-24T04:46:11.090Z,99991.58
2022-08-24T04:47:12.070Z,99991.57
2022-08-24T04:48:11.063Z,99988.83
2022-08-24T04:49:11.060Z,99987.07
2022-08-24T04:50:11.064Z,99991.33
2022-08-24T04:51:13.964Z,99991.55
2022-08-24T04:52:11.063Z,99997.91
2022-08-24T04:53:11.065Z,99995.92
2022-08-24T04:54:11.063Z,99994.74
2022-08-24T04:55:11.062Z,99998.15
2022-08-24T04:56:14.068Z,99996.16
2022-08-24T04:57:14.733Z,99996.52
2022-08-24T04:58:13.218Z,99998.01
2022-08-24T04:59:11.067Z,99999.11
2022-08-24T05:00:11.065Z,99998.46
2022-08-24T05:01:16.158Z,99998.72
2022-08-24T05:02:11.183Z,99999.74
2022-08-24T05:03:11.072Z,100004.53
2022-08-24T05:04:11.066Z,100004.05
2022-08-24T05:05:11.068Z,100010.12
2022-08-24T05:06:13.072Z,100008.49
2022-08-24T05:07:11.067Z,100003.04
2022-08-24T05:08:11.061Z,100007.30
2022-08-24T05:09:11.069Z,100005.40
2022-08-24T05:10:11.066Z,100002.83
2022-08-24T05:11:13.062Z,100005.99
2022-08-24T05:12:11.065Z,99999.72
2022-08-24T05:13:11.067Z,100004.60
2022-08-24T05:14:11.160Z,100003.25
2022-08-24T05:15:11.065Z,100001.30
2022-08-24T05:16:12.140Z,100001.20
2022-08-24T05:17:11.065Z,100002.74
2022-08-24T05:18:11.068Z,100003.33
2022-08-24T05:19:11.068Z,100006.84
2022-08-24T05:20:11.075Z,100006.85
2022-08-24T05:21:12.057Z,100008.64
2022-08-24T05:22:11.060Z,100006.11
2022-08-24T05:23:11.338Z,100007.70
2022-08-24T05:24:11.058Z,100004.78
2022-08-24T05:25:11.059Z,100009.75
2022-08-24T05:26:12.057Z,100006.59
2022-08-24T05:27:11.059Z,100009.55
2022-08-24T05:28:11.066Z,100007.24
2022-08-24T05:29:11.058Z,100005.57
2022-08-24T05:30:11.061Z,100009.47
2022-08-24T05:31:20.146Z,100008.37
2022-08-24T05:32:11.060Z,100014.94
2022-08-24T05:33:11.061Z,100013.61
2022-08-24T05:34:11.062Z,100014.11
2022-08-24T05:35:11.060Z,100012.70
2022-08-24T05:36:16.057Z,100011.60
2022-08-24T05:37:11.062Z,100018.06
2022-08-24T05:38:11.061Z,100018.95
2022-08-24T05:39:11.437Z,100017.49
2022-08-24T05:40:11.091Z,100017.37
2022-08-24T05:41:11.061Z,100022.98
2022-08-24T05:42:11.060Z,100016.72
2022-08-24T05:43:11.063Z,100019.02
2022-08-24T05:44:11.061Z,100023.80
2022-08-24T05:45:11.060Z,100018.07
2022-08-24T05:46:11.120Z,100024.41
2022-08-24T05:47:11.062Z,100025.93
2022-08-24T05:48:11.060Z,100026.84
2022-08-24T05:49:11.063Z,100028.77
2022-08-24T05:50:11.067Z,100030.20
2022-08-24T05:51:11.065Z,100033.67
2022-08-24T05:52:11.063Z,100030.70
2022-08-24T05:53:11.065Z,100030.55
2022-08-24T05:54:11.062Z,100032.78
2022-08-24T05:55:11.063Z,100032.28
2022-08-24T05:56:11.066Z,100031.11
2022-08-24T05:57:11.062Z,100030.84
2022-08-24T05:58:11.086Z,100030.28
2022-08-24T05:59:11.073Z,100029.64
2022-08-24T06:00:11.062Z,100032.79
2022-08-24T06:01:12.065Z,100028.97
2022-08-24T06:02:11.132Z,100028.48
2022-08-24T06:03:14.569Z,100030.89
2022-08-24T06:04:11.067Z,100026.58
2022-08-24T06:05:11.073Z,100027.12
2022-08-24T06:06:11.069Z,100021.25
2022-08-24T06:07:11.062Z,100022.30
2022-08-24T06:08:11.067Z,100021.28
2022-08-24T06:09:12.066Z,100022.29
2022-08-24T06:10:35.338Z,100022.07
2022-08-24T06:11:13.105Z,100026.53
2022-08-24T06:12:11.068Z,100024.45
2022-08-24T06:13:11.064Z,100026.12
2022-08-24T06:14:15.065Z,100025.68
2022-08-24T06:15:11.074Z,100029.96
2022-08-24T06:16:21.632Z,100026.07
2022-08-24T06:17:13.149Z,100026.04
2022-08-24T06:18:11.132Z,100025.53
2022-08-24T06:19:11.067Z,100029.30
2022-08-24T06:20:11.069Z,100027.71
2022-08-24T06:21:11.056Z,100029.47
2022-08-24T06:22:11.060Z,100030.68
2022-08-24T06:23:11.057Z,100035.70
2022-08-24T06:24:11.059Z,100033.59
2022-08-24T06:25:15.061Z,100036.73
2022-08-24T06:26:16.327Z,100035.73
2022-08-24T06:27:16.057Z,100035.84
2022-08-24T06:28:11.060Z,100034.62
2022-08-24T06:29:11.066Z,100039.16
2022-08-24T06:30:11.059Z,100043.79
2022-08-24T06:31:11.142Z,100038.43
2022-08-24T06:32:11.067Z,100041.62
2022-08-24T06:33:11.058Z,100042.59
2022-08-24T06:34:11.061Z,100043.20
2022-08-24T06:35:11.389Z,100050.41
2022-08-24T06:36:11.060Z,100044.22
2022-08-24T06:37:11.062Z,100041.03
2022-08-24T06:38:11.071Z,100042.00
2022-08-24T06:39:11.060Z,100042.70
2022-08-24T06:40:11.129Z,100045.25
2022-08-24T06:41:11.071Z,100042.80
2022-08-24T06:42:11.063Z,100050.70
2022-08-24T06:43:11.065Z,100055.38
2022-08-24T06:44:11.069Z,100054.75
2022-08-24T06:45:11.061Z,100053.31
2022-08-24T06:46:11.119Z,100052.50
2022-08-24T06:47:11.079Z,100049.17
2022-08-24T06:48:11.061Z,100056.01
2022-08-24T06:49:11.063Z,100051.25
2022-08-24T06:50:11.071Z,100053.56
2022-08-24T06:51:15.062Z,100066.49
2022-08-24T06:52:11.066Z,100054.82
2022-08-24T06:53:11.071Z,100052.32
2022-08-24T06:54:11.066Z,100055.16
2022-08-24T06:55:11.068Z,100060.03
2022-08-24T06:56:11.072Z,100061.88
2022-08-24T06:57:11.066Z,100063.22
2022-08-24T06:58:11.066Z,100059.89
2022-08-24T06:59:11.071Z,100061.72
2022-08-24T07:00:11.062Z,100060.55
2022-08-24T07:01:11.066Z,100066.73
2022-08-24T07:02:11.072Z,100063.95
2022-08-24T07:03:11.088Z,100063.78
2022-08-24T07:04:11.071Z,100060.36
2022-08-24T07:05:11.075Z,100065.60
2022-08-24T07:06:11.063Z,100067.42
2022-08-24T07:07:11.068Z,100066.09
2022-08-24T07:08:11.073Z,100065.87
2022-08-24T07:09:11.065Z,100069.93
2022-08-24T07:10:11.069Z,100066.71
2022-08-24T07:11:11.073Z,100068.02
2022-08-24T07:12:11.068Z,100063.59
2022-08-24T07:13:11.070Z,100067.73
2022-08-24T07:14:11.076Z,100072.34
2022-08-24T07:15:15.806Z,100076.25
2022-08-24T07:16:14.054Z,100074.38
2022-08-24T07:17:11.068Z,100072.33
2022-08-24T07:18:16.070Z,100082.01
2022-08-24T07:19:11.066Z,100079.64
2022-08-24T07:20:11.070Z,100075.01
2022-08-24T07:21:11.059Z,100083.55
2022-08-24T07:22:11.075Z,100084.46
2022-08-24T07:23:11.057Z,100080.10
2022-08-24T07:24:11.059Z,100088.28
2022-08-24T07:25:11.057Z,100081.79
2022-08-24T07:26:11.056Z,100079.86
2022-08-24T07:27:13.093Z,100084.63
2022-08-24T07:28:11.267Z,100089.57
2022-08-24T07:29:43.741Z,100086.04
2022-08-24T07:31:13.292Z,100086.09
2022-08-24T07:32:11.058Z,100085.62
2022-08-24T07:33:11.059Z,100084.30
2022-08-24T07:34:11.061Z,100084.17
2022-08-24T07:35:11.057Z,100084.35
2022-08-24T07:36:11.061Z,100085.76
2022-08-24T07:37:13.092Z,100082.92
2022-08-24T07:38:11.058Z,100091.09
2022-08-24T07:39:11.063Z,100088.48
2022-08-24T07:40:11.094Z,100093.63
2022-08-24T07:41:36.650Z,100095.88
2022-08-24T07:42:18.806Z,100094.36
2022-08-24T07:43:13.067Z,100092.31
2022-08-24T07:44:11.065Z,100092.87
2022-08-24T07:45:11.060Z,100095.50
2022-08-24T07:46:11.112Z,100101.99
2022-08-24T07:47:36.547Z,100097.32
2022-08-24T07:48:14.303Z,100097.70
2022-08-24T07:49:21.416Z,100101.88
2022-08-24T07:50:13.067Z,100102.62
2022-08-24T07:51:14.063Z,100102.79
2022-08-24T07:52:11.063Z,100109.52
2022-08-24T07:53:14.864Z,100113.81
2022-08-24T07:54:13.456Z,100116.55
2022-08-24T07:55:11.062Z,100115.41
2022-08-24T07:56:11.067Z,100118.73
2022-08-24T07:57:11.074Z,100118.64
2022-08-24T07:58:11.066Z,100119.19
2022-08-24T07:59:13.314Z,100120.75
2022-08-24T08:00:11.067Z,100124.84
2022-08-24T08:01:11.141Z,100126.51
2022-08-24T08:02:11.199Z,100132.76
2022-08-24T08:03:11.126Z,100136.62
2022-08-24T08:04:11.069Z,100138.40
2022-08-24T08:05:11.065Z,100143.41
2022-08-24T08:06:16.261Z,100139.97
2022-08-24T08:07:13.103Z,100143.20
2022-08-24T08:08:11.064Z,100138.37
2022-08-24T08:09:11.070Z,100146.97
2022-08-24T08:10:11.074Z,100146.80
2022-08-24T08:11:11.064Z,100151.02
2022-08-24T08:12:11.069Z,100156.27
2022-08-24T08:13:11.074Z,100155.46
2022-08-24T08:14:11.065Z,100154.23
2022-08-24T08:15:11.069Z,100155.91
2022-08-24T08:16:11.129Z,100158.71
2022-08-24T08:17:11.070Z,100161.99
2022-08-24T08:18:11.065Z,100157.43
2022-08-24T08:19:11.478Z,100161.45
2022-08-24T08:20:11.069Z,100163.16
2022-08-24T08:21:14.137Z,100168.21
2022-08-24T08:22:15.060Z,100167.51
2022-08-24T08:23:15.059Z,100165.96
2022-08-24T08:24:15.062Z,100166.99
2022-08-24T08:25:11.055Z,100165.35
2022-08-24T08:26:18.066Z,100168.45
2022-08-24T08:27:11.060Z,100167.34
2022-08-24T08:28:25.004Z,100164.55
2022-08-24T08:29:13.205Z,100168.17
2022-08-24T08:30:11.061Z,100165.18
2022-08-24T08:31:11.088Z,100167.50
2022-08-24T08:32:11.059Z,100167.70
2022-08-24T08:33:11.060Z,100169.73
2022-08-24T08:34:11.061Z,100166.09
2022-08-24T08:35:11.059Z,100168.08
2022-08-24T08:36:12.067Z,100169.16
2022-08-24T08:37:11.063Z,100170.62
2022-08-24T08:38:11.060Z,100171.41
2022-08-24T08:39:11.062Z,100172.52
2022-08-24T08:40:18.140Z,100171.63
2022-08-24T08:41:24.606Z,100170.35
2022-08-24T08:42:19.058Z,100173.58
2022-08-24T08:43:19.064Z,100176.77
2022-08-24T08:44:19.074Z,100173.52
2022-08-24T08:45:22.099Z,100178.41
2022-08-24T08:46:19.131Z,100172.83
2022-08-24T08:47:19.058Z,100180.02
2022-08-24T08:48:22.062Z,100174.58
2022-08-24T08:49:19.070Z,100177.39
2022-08-24T08:50:19.091Z,100177.93
2022-08-24T08:51:19.065Z,100175.70
2022-08-24T08:52:19.061Z,100175.62
2022-08-24T08:53:19.063Z,100170.74
2022-08-24T08:54:18.076Z,100173.09
2022-08-24T08:55:22.064Z,100174.91
2022-08-24T08:56:23.883Z,100173.48
2022-08-24T08:57:19.061Z,100179.62
2022-08-24T08:58:22.063Z,100179.13
2022-08-24T08:59:19.071Z,100178.65
2022-08-24T09:00:19.120Z,100178.76
2022-08-24T09:01:19.168Z,100179.78
2022-08-24T09:02:19.063Z,100179.44
2022-08-24T09:03:19.069Z,100179.80
2022-08-24T09:04:20.928Z,100182.52
2022-08-24T09:05:19.067Z,100179.21
2022-08-24T09:06:19.066Z,100187.38
2022-08-24T09:07:24.067Z,100184.53
2022-08-24T09:08:22.068Z,100185.35
2022-08-24T09:09:22.073Z,100183.20
2022-08-24T09:10:19.086Z,100184.81
2022-08-24T09:11:22.072Z,100185.82
2022-08-24T09:12:19.065Z,100188.67
2022-08-24T09:13:22.062Z,100185.35
2022-08-24T09:14:19.067Z,100191.57
2022-08-24T09:15:19.075Z,100191.45
2022-08-24T09:16:19.145Z,100191.00
2022-08-24T09:17:19.101Z,100198.96
2022-08-24T09:18:19.067Z,100191.44
2022-08-24T09:19:22.068Z,100192.29
2022-08-24T09:20:22.060Z,100191.96
2022-08-24T09:21:18.071Z,100195.23
2022-08-24T09:22:18.061Z,100201.13
2022-08-24T09:23:19.057Z,100197.72
2022-08-24T09:24:19.071Z,100204.14
2022-08-24T09:25:19.066Z,100195.18
2022-08-24T09:26:21.074Z,100193.92
2022-08-24T09:27:19.061Z,100195.97
2022-08-24T09:28:16.055Z,100198.16
2022-08-24T09:29:21.061Z,100199.20
2022-08-24T09:30:22.074Z,100200.60
2022-08-24T09:31:19.195Z,100197.32
2022-08-24T09:32:22.062Z,100204.62
2022-08-24T09:33:24.059Z,100202.47
2022-08-24T09:34:19.059Z,100205.74
2022-08-24T09:35:26.358Z,100209.93
2022-08-24T09:36:24.965Z,100210.17
2022-08-24T09:37:19.068Z,100206.06
2022-08-24T09:38:19.067Z,100208.10
2022-08-24T09:39:19.059Z,100205.02
2022-08-24T09:40:22.171Z,100204.94
2022-08-24T09:41:22.067Z,100205.04
2022-08-24T09:42:22.074Z,100204.70
2022-08-24T09:43:19.063Z,100205.04
2022-08-24T09:44:19.063Z,100207.67
2022-08-24T09:45:19.060Z,100203.13
2022-08-24T09:46:22.148Z,100202.82
2022-08-24T09:47:22.065Z,100200.29
2022-08-24T09:48:22.070Z,100202.96
2022-08-24T09:49:19.076Z,100201.63
2022-08-24T09:50:19.064Z,100201.78
2022-08-24T09:51:22.062Z,100199.52
2022-08-24T09:52:19.060Z,100198.81
2022-08-24T09:53:19.063Z,100200.40
2022-08-24T09:54:19.077Z,100201.44
2022-08-24T09:55:19.065Z,100203.91
2022-08-24T09:56:22.064Z,100204.49
2022-08-24T09:57:20.078Z,100204.06
2022-08-24T09:58:19.068Z,100204.17
2022-08-24T09:59:19.077Z,100201.32
2022-08-24T10:00:23.065Z,100200.88
2022-08-24T10:01:19.114Z,100197.31
2022-08-24T10:02:19.115Z,100198.60
2022-08-24T10:03:27.376Z,100198.82
2022-08-24T10:04:21.106Z,100194.20
2022-08-24T10:05:22.195Z,100192.48
2022-08-24T10:06:22.103Z,100197.49
2022-08-24T10:07:19.065Z,100194.51
2022-08-24T10:08:19.063Z,100194.79
2022-08-24T10:09:20.630Z,100194.22
2022-08-24T10:10:24.108Z,100190.07
2022-08-24T10:11:22.069Z,100189.71
2022-08-24T10:12:22.068Z,100194.47
2022-08-24T10:13:19.066Z,100193.05
2022-08-24T10:14:25.069Z,100196.41
2022-08-24T10:15:20.069Z,100197.79
2022-08-24T10:16:22.119Z,100197.29
2022-08-24T10:17:19.075Z,100190.63
2022-08-24T10:18:19.069Z,100191.84
2022-08-24T10:19:19.068Z,100190.05
2022-08-24T10:20:19.062Z,100191.75
2022-08-24T10:21:23.060Z,100189.81
2022-08-24T10:22:19.072Z,100190.95
2022-08-24T10:23:20.059Z,100190.32
2022-08-24T10:24:29.214Z,100190.16
2022-08-24T10:25:19.057Z,100197.05
2022-08-24T10:26:21.080Z,100192.84
2022-08-24T10:27:19.064Z,100194.77
2022-08-24T10:28:19.067Z,100195.51
2022-08-24T10:29:19.060Z,100193.73
2022-08-24T10:30:23.727Z,100193.60
2022-08-24T10:31:16.079Z,100194.24
2022-08-24T10:32:19.059Z,100194.00
2022-08-24T10:33:19.072Z,100194.44
2022-08-24T10:34:19.073Z,100191.93
2022-08-24T10:35:16.060Z,100192.46
2022-08-24T10:36:22.062Z,100187.55
2022-08-24T10:37:19.064Z,100192.00
2022-08-24T10:38:23.063Z,100192.80
2022-08-24T10:39:23.063Z,100193.20
2022-08-24T10:40:19.096Z,100189.79
2022-08-24T10:41:22.060Z,100193.54
2022-08-24T10:42:19.063Z,100197.15
2022-08-24T10:43:26.327Z,100194.04
2022-08-24T10:44:19.070Z,100196.64
2022-08-24T10:45:19.064Z,100196.97
2022-08-24T10:46:19.063Z,100203.36
2022-08-24T10:47:18.064Z,100199.34
2022-08-24T10:48:22.063Z,100198.05
2022-08-24T10:49:19.066Z,100196.78
2022-08-24T10:50:19.077Z,100200.04
2022-08-24T10:51:22.062Z,100199.57
2022-08-24T10:52:19.063Z,100194.11
2022-08-24T10:53:19.065Z,100194.31
2022-08-24T10:54:12.068Z,100194.74
2022-08-24T10:55:16.069Z,100196.78
2022-08-24T10:56:14.065Z,100193.71
2022-08-24T10:57:19.068Z,100192.61
2022-08-24T10:58:22.067Z,100192.30
2022-08-24T10:59:22.067Z,100191.78
2022-08-24T11:00:18.200Z,100195.55
2022-08-24T11:01:21.494Z,100195.38
2022-08-24T11:02:16.084Z,100196.61
2022-08-24T11:03:16.074Z,100196.54
2022-08-24T11:04:18.065Z,100197.30
2022-08-24T11:05:12.087Z,100199.12
2022-08-24T11:06:15.067Z,100206.98
2022-08-24T11:07:21.067Z,100202.23
2022-08-24T11:08:12.069Z,100205.92
2022-08-24T11:09:19.775Z,100200.94
2022-08-24T11:10:11.067Z,100202.98
2022-08-24T11:11:19.076Z,100201.64
2022-08-24T11:12:19.071Z,100201.53
2022-08-24T11:13:21.067Z,100204.28
2022-08-24T11:14:19.064Z,100202.50
2022-08-24T11:15:21.069Z,100206.35
2022-08-24T11:16:15.127Z,100205.97
2022-08-24T11:17:15.070Z,100202.81
2022-08-24T11:18:11.069Z,100206.03
2022-08-24T11:19:16.069Z,100208.70
2022-08-24T11:20:19.065Z,100207.61
2022-08-24T11:21:15.058Z,100208.05
2022-08-24T11:22:19.057Z,100207.76
2022-08-24T11:23:15.055Z,100209.20
2022-08-24T11:24:19.062Z,100207.74
2022-08-24T11:25:19.059Z,100206.36
2022-08-24T11:26:19.058Z,100203.88
2022-08-24T11:27:22.056Z,100205.68